Flight Track Log - Related Links

Times and Time Zones

All times are in EDT time to prevent confusion due to time zone crossing. See the VOZ187 flight status page for this flight to view local times or setup timezone preferences in your user account.

Time Position Orientation Groundspeed Altitude Reporting Facility
EDT Latitude Longitude Course Direction KTS MPH feet Rate Location/Type
Mon 04:22:05 PM -35.6857 163.2770 312° West 34,000  Level Aus ATC (Calculated)
Mon 04:24:00 PM -35.6546 163.0318 313° West 34,000 -30 Level Aus ATC (Calculated)
Mon 04:25:00 PM -35.5880 162.9398 312° West  Level Estimated
Mon 04:25:54 PM -35.6131 162.7103 315° West 34,000  Level Aus ATC (Calculated)
Mon 04:26:00 PM -35.5212 162.8479 312° West  Level Estimated
Mon 04:27:00 PM -35.5347 162.6055 313° West  Level Estimated
Mon 04:28:00 PM -35.4634 162.5103 313° West  Level Estimated
Mon 04:29:00 PM -35.3920 162.4154 313° West  Level Estimated
Mon 04:29:00 PM -35.5585 162.2974 317° Northwest 32,000  Level Aus ATC (Calculated)
Mon 04:30:00 PM -35.4857 162.2040 314° West  Level Estimated
Mon 04:31:00 PM -35.4128 162.1108 314° West  Level Estimated
Mon 04:31:24 PM -35.3498 162.0560 317° Northwest 32,000  Level Aus ATC (Calculated)
Mon 04:31:55 PM -35.2801 161.9758 317° Northwest 32,000  Level Aus ATC (Calculated)
Mon 04:32:41 PM -35.2104 161.8957 317° Northwest 32,000  Level Aus ATC (Calculated)
Mon 04:33:00 PM -35.2011 161.8751 314° West  Level Estimated
Mon 04:34:00 PM -35.1129 161.7717 314° West  Level Estimated
Mon 04:35:00 PM -35.0387 161.6777 314° West  Level Estimated
Mon 04:36:00 PM -34.9645 161.5839 314° West  Level Estimated
Mon 04:36:04 PM -34.9309 161.5768 317° Northwest 32,000  Level Aus ATC (Calculated)
Mon 04:38:00 PM -34.7875 161.3956 314° West  Level Estimated
Mon 04:39:00 PM -34.7133 161.3022 314° West  Level Estimated
Mon 04:40:00 PM -34.6389 161.2089 314° West  Level Estimated
Mon 04:41:00 PM -34.5645 161.1158 314° West  Level Estimated
Mon 04:42:00 PM -34.4900 161.0229 314° West  Level Estimated
Mon 04:43:00 PM -34.4154 160.9301 314° West  Level Estimated
Mon 04:44:00 PM -34.3408 160.8375 314° West  Level Estimated
Mon 04:45:00 PM -34.2661 160.7450 314° West  Level Estimated
Mon 04:46:00 PM -34.1913 160.6527 314° West  Level Estimated
Mon 04:47:00 PM -34.1165 160.5606 314° West  Level Estimated
Mon 04:48:00 PM -34.0415 160.4687 314° West  Level Estimated
Mon 04:49:00 PM -33.9666 160.3769 315° West  Level Estimated
Mon 04:50:00 PM -33.8915 160.2852 315° West  Level Estimated
Mon 04:51:00 PM -33.8164 160.1938 315° West  Level Estimated
Mon 04:51:48 PM -33.5213 160.0138 318° Northwest 32,000  Level Aus ATC (Calculated)
Mon 04:52:00 PM -33.7412 160.1025 315° West  Level Estimated
Mon 04:53:00 PM -33.4320 159.9035 314° West  Level Estimated
Mon 04:53:48 PM -33.3792 159.8603 318° Northwest 32,000  Level Aus ATC (Calculated)
Mon 04:54:00 PM -33.3576 159.8118 314° West  Level Estimated
Mon 04:55:00 PM -33.2900 159.7502 314° West  Level Estimated
Mon 04:55:48 PM -33.1658 159.6310 318° Northwest 32,000  Level Aus ATC (Calculated)
Mon 04:55:48 PM -33.1658 159.6310 318° Northwest 32,000  Level Aus ATC (Calculated)
Mon 04:56:00 PM -33.2155 159.6586 314° West  Level Estimated
Mon 04:57:00 PM -33.0765 159.5211 314° West  Level Estimated
Mon 04:58:00 PM -33.0021 159.4297 314° West  Level Estimated
Mon 04:59:00 PM -32.9276 159.3385 314° West  Level Estimated
Mon 05:00:00 PM -32.8530 159.2474 314° West  Level Estimated
Mon 05:01:00 PM -32.7783 159.1565 314° West  Level Estimated
Mon 05:02:00 PM -32.7036 159.0657 314° West  Level Estimated
Mon 05:03:00 PM -32.6288 158.9751 314° West  Level Estimated
Mon 05:04:00 PM -32.5540 158.8846 314° West  Level Estimated
Mon 05:05:00 PM -32.4791 158.7943 315° West  Level Estimated
Mon 05:05:04 PM -32.3795 158.7996 319° Northwest 32,000  Level Aus ATC (Calculated)
Mon 05:06:20 PM -32.2360 158.6500 319° Northwest 32,000  Level Aus ATC (Calculated)
Mon 05:06:27 PM -32.2360 158.6500 319° Northwest 32,000  Level Aus ATC (Calculated)
Mon 05:08:00 PM -32.1211 158.5091 314° West  Level Estimated
Mon 05:09:00 PM -32.0469 158.4184 314° West  Level Estimated
Mon 05:10:00 PM -31.9726 158.3278 314° West  Level Estimated
Mon 05:11:00 PM -31.8983 158.2374 314° West  Level Estimated
Mon 05:11:24 PM -31.8042 158.2039 319° Northwest 32,000  Level Aus ATC (Calculated)
Mon 05:12:00 PM -31.8239 158.1472 314° West  Level Estimated
Mon 05:13:00 PM -31.6860 158.0587 314° West  Level Estimated
Mon 05:14:00 PM -31.6121 157.9681 314° West  Level Estimated
Mon 05:15:00 PM -31.5381 157.8777 314° West  Level Estimated
Mon 05:16:00 PM -31.4640 157.7874 314° West  Level Estimated
Mon 05:16:23 PM -31.3709 157.7620 319° Northwest 32,000  Level Aus ATC (Calculated)
Mon 05:17:00 PM -31.3899 157.6973 314° West  Level Estimated
Mon 05:18:00 PM -31.3157 157.6072 314° West  Level Estimated
Mon 05:19:00 PM -31.1786 157.5246 313° West  Level Estimated
Mon 05:20:00 PM -31.1050 157.4342 314° West  Level Estimated
Mon 05:21:00 PM -31.0313 157.3439 314° West  Level Estimated
Mon 05:21:23 PM -30.8583 157.2464 321° Northwest 32,000  Level Aus ATC (Calculated)
Mon 05:22:00 PM -30.9576 157.2537 314° West  Level Estimated
Mon 05:23:00 PM -30.7401 157.0985 313° West  Level Estimated
Mon 05:24:00 PM -30.6668 157.0072 313° West  Level Estimated
Mon 05:24:52 PM -30.5572 156.9471 139° Southeast 32,000  Level Aus ATC (Calculated)
Mon 05:25:00 PM -30.5936 156.9160 313° West  Level Estimated
Mon 05:26:00 PM -30.4750 156.8430 313° West  Level Estimated
Mon 05:27:00 PM -30.4023 156.7513 313° West  Level Estimated
Mon 05:27:42 PM -30.7817 157.1733 313° West 363 418 32,000  Level Aus ATC (RADAR)
Mon 05:29:22 PM -30.6545 157.0398 318° Northwest 357 411 32,000  Level Aus ATC (RADAR)
Mon 05:30:27 PM -30.5700 156.9600 321° Northwest 378 435 32,000  Level FlightAware ADS-B
Mon 05:30:57 PM -30.5245 156.9179 321° Northwest 369 425 32,000  Level Aus ATC (RADAR)
Mon 05:31:07 PM -30.5200 156.9100 319° Northwest 378 435 32,000  Level FlightAware ADS-B
Mon 05:32:02 PM -30.4530 156.8440 320° Northwest 378 435 32,000  Level FlightAware ADS-B
Mon 05:32:27 PM -30.4059 156.7979 320° Northwest 367 422 32,000  Level Aus ATC (RADAR)
Mon 05:32:42 PM -30.4090 156.7980 320° Northwest 378 435 32,000  Level FlightAware ADS-B
Mon 05:33:22 PM -30.3640 156.7530 319° Northwest 378 435 32,000  Level FlightAware ADS-B
Mon 05:34:02 PM -30.3190 156.7080 319° Northwest 378 435 32,000  Level FlightAware ADS-B
Mon 05:34:52 PM -30.2630 156.6520 319° Northwest 378 435 32,000  Level FlightAware ADS-B
Mon 05:35:32 PM -30.2180 156.6060 319° Northwest 378 435 32,000  Level FlightAware ADS-B
Mon 05:36:12 PM -30.1730 156.5610 319° Northwest 378 435 32,000  Level FlightAware ADS-B
Mon 05:36:48 PM -30.1008 156.4993 319° Northwest 365 420 32,000  Level Aus ATC (RADAR)
Mon 05:36:52 PM -30.1280 156.5160 319° Northwest 378 435 32,000  Level FlightAware ADS-B
Mon 05:37:32 PM -30.0830 156.4710 319° Northwest 378 435 32,000  Level FlightAware ADS-B
Mon 05:38:22 PM -30.0270 156.4150 319° Northwest 378 435 32,000  Level FlightAware ADS-B
Mon 05:38:51 PM -29.9004 156.2998 319° Northwest 357 411 32,000  Level Aus ATC (RADAR)
Mon 05:39:02 PM -29.9820 156.3700 319° Northwest 378 435 32,000  Level FlightAware ADS-B
Mon 05:39:42 PM -29.9370 156.3250 319° Northwest 378 435 32,000  Level FlightAware ADS-B
Mon 05:40:16 PM -29.7908 156.1936 319° Northwest 354 407 32,000  Level Aus ATC (RADAR)
Mon 05:40:22 PM -29.8930 156.2800 319° Northwest 378 435 32,000  Level FlightAware ADS-B
Mon 05:41:02 PM -29.8480 156.2350 319° Northwest 378 435 32,000  Level FlightAware ADS-B
Mon 05:42:06 PM -29.6487 156.0587 319° Northwest 353 406 32,000  Level Aus ATC (RADAR)
Mon 05:43:56 PM -29.5089 155.9244 320° Northwest 350 403 32,000  Level Aus ATC (RADAR)
Mon 05:44:32 PM -29.4660 155.8840 320° Northwest 359 413 32,000  Level FlightAware ADS-B
Mon 05:45:17 PM -29.4140 155.8340 320° Northwest 359 413 32,000  Level FlightAware ADS-B
Mon 05:45:57 PM -29.3710 155.7920 320° Northwest 359 413 32,000  Level FlightAware ADS-B
Mon 05:46:37 PM -29.3280 155.7500 320° Northwest 359 413 32,000  Level FlightAware ADS-B
Mon 05:47:27 PM -29.2740 155.6980 320° Northwest 359 413 32,000  Level FlightAware ADS-B
Mon 05:48:07 PM -29.2300 155.6570 321° Northwest 359 413 32,000  Level FlightAware ADS-B
Mon 05:48:25 PM -29.1646 155.5951 321° Northwest 352 405 32,000  Level Aus ATC (RADAR)
Mon 05:48:52 PM -29.1350 155.5670 321° Northwest 357 411 32,000  Level FlightAware ADS-B
Mon 05:49:32 PM -29.0840 155.5180 320° Northwest 355 409 32,000  Level FlightAware ADS-B
Mon 05:49:55 PM -29.0510 155.4869 320° Northwest 347 399 32,000  Level Aus ATC (RADAR)
Mon 05:50:22 PM -29.0270 155.4630 320° Northwest 356 410 32,000  Level FlightAware ADS-B
Mon 05:51:20 PM -28.9432 155.3848 320° Northwest 349 402 32,000  Level Aus ATC (RADAR)
Mon 05:51:22 PM -28.9500 155.3910 320° Northwest 356 410 32,000  Level FlightAware ADS-B
Mon 05:52:07 PM -28.8900 155.3350 321° Northwest 331 381 32,000  Level FlightAware ADS-B
Mon 05:52:42 PM -28.8530 155.2990 320° Northwest 321 369 32,000  Level FlightAware ADS-B
Mon 05:53:27 PM -28.8060 155.2540 320° Northwest 320 368 32,000  Level FlightAware ADS-B
Mon 05:54:07 PM -28.7680 155.2180 320° Northwest 320 368 32,000  Level FlightAware ADS-B
Mon 05:55:07 PM -28.6810 155.1360 320° Northwest 32,000  Level FlightAware ADS-B
Mon 05:55:42 PM -28.6410 155.0990 321° Northwest 331 381 32,000  Level FlightAware ADS-B
Mon 05:56:32 PM -28.5780 155.0400 321° Northwest 322 371 32,000  Level FlightAware ADS-B
Mon 05:57:17 PM -28.5240 154.9900 321° Northwest 322 371 32,000  Level FlightAware ADS-B
Mon 05:57:52 PM -28.4840 154.9520 320° Northwest 322 371 32,000  Level FlightAware ADS-B
Mon 05:58:37 PM -28.4350 154.9060 320° Northwest 332 382 32,000  Level FlightAware ADS-B
Mon 05:58:59 PM -28.4005 154.8748 320° Northwest 328 377 32,000  Level Aus ATC (RADAR)
Mon 05:59:22 PM -28.3790 154.8530 320° Northwest 334 384 32,000  Level FlightAware ADS-B
Mon 06:00:02 PM -28.3280 154.8070 322° Northwest 336 387 32,000  Level FlightAware ADS-B
Mon 06:00:37 PM -28.2900 154.7710 320° Northwest 335 386 32,000  Level FlightAware ADS-B
Mon 06:01:27 PM -28.2280 154.7130 320° Northwest 336 387 32,000  Level FlightAware ADS-B
Mon 06:01:55 PM -28.2513 154.7353 320° Northwest 329 379 32,000  Level Aus ATC (RADAR)
Mon 06:02:17 PM -28.1670 154.6570 320° Northwest 322 371 32,000 -90 Level FlightAware ADS-B
Mon 06:03:02 PM -28.1190 154.6120 320° Northwest 318 366 31,900 -1,000 Descending FlightAware ADS-B
Mon 06:03:47 PM -28.0650 154.5620 321° Northwest 309 356 30,500 -1,765 Descending FlightAware ADS-B
Mon 06:04:27 PM -28.0230 154.5230 321° Northwest 294 338 29,400 -85 Descending FlightAware ADS-B
Mon 06:04:58 PM -28.0654 154.5627 321° Northwest 310 357 30,400 -1,800 Climbing Aus ATC (RADAR)
Mon 06:05:07 PM -27.9810 154.4840 321° Northwest 297 342 28,200 -4,333 Descending FlightAware ADS-B
Mon 06:05:52 PM -27.9310 154.4380 321° Northwest 298 343 26,500 -1,976 Descending FlightAware ADS-B
Mon 06:06:32 PM -27.8900 154.4000 321° Northwest 298 343 25,400 -1,171 Descending FlightAware ADS-B
Mon 06:06:33 PM -27.9036 154.4127 321° Northwest 304 350 25,700 -1,800 Climbing Aus ATC (RADAR)
Mon 06:07:12 PM -27.8430 154.3560 320° Northwest 295 339 24,200 -1,955 Descending FlightAware ADS-B
Mon 06:08:02 PM -27.7920 154.3100 320° Northwest 296 341 22,800 -1,846 Descending FlightAware ADS-B
Mon 06:08:04 PM -27.7843 154.3031 320° Northwest 299 344 22,600 -1,680 Descending Aus ATC (RADAR)
Mon 06:08:52 PM -27.7360 154.2580 321° Northwest 293 337 21,400 -1,742 Descending FlightAware ADS-B
Mon 06:09:37 PM -27.6860 154.2120 321° Northwest 298 343 19,900 -1,976 Descending FlightAware ADS-B
Mon 06:10:17 PM -27.6440 154.1730 321° Northwest 313 360 18,600 -1,875 Descending FlightAware ADS-B
Mon 06:10:57 PM -27.5960 154.1300 322° Northwest 311 358 17,400 -1,684 Descending FlightAware ADS-B
Mon 06:11:14 PM -27.5811 154.1163 322° Northwest 310 357 17,000 -1,467 Descending Aus ATC (RADAR)
Mon 06:11:42 PM -27.5470 154.0850 322° Northwest 300 345 16,300 -1,552 Descending FlightAware ADS-B
Mon 06:12:12 PM -27.5200 154.0510 312° West 297 342 15,500 -1,457 Descending FlightAware ADS-B
Mon 06:12:52 PM -27.5080 153.9890 282° West 297 342 14,600 -1,200 Descending FlightAware ADS-B
Mon 06:13:37 PM -27.4970 153.9210 280° West 291 335 13,800 -988 Descending FlightAware ADS-B
Mon 06:14:17 PM -27.4870 153.8610 281° West 291 335 13,200 -975 Descending FlightAware ADS-B
Mon 06:14:57 PM -27.4770 153.8010 281° West 291 335 12,500 -1,059 Descending FlightAware ADS-B
Mon 06:15:42 PM -27.4670 153.7360 280° West 283 326 11,700 -1,200 Descending FlightAware ADS-B
Mon 06:16:22 PM -27.4570 153.6790 281° West 280 322 10,800 -1,412 Descending FlightAware ADS-B
Mon 06:17:07 PM -27.4460 153.6140 281° West 276 318 9,700 -1,475 Descending FlightAware ADS-B
Mon 06:17:23 PM -27.4417 153.5894 281° West 273 314 9,300 -1,440 Descending Aus ATC (RADAR)
Mon 06:17:32 PM -27.4400 153.5780 281° West 276 318 9,100 -1,385 Descending FlightAware ADS-B
Mon 06:18:02 PM -27.4330 153.5360 281° West 274 315 8,400 -1,200 Descending FlightAware ADS-B
Mon 06:18:42 PM -27.4400 153.4820 262° West 273 314 7,700 -943 Descending FlightAware ADS-B
Mon 06:19:12 PM -27.4570 153.4430 244° Southwest 275 316 7,300 -764 Descending FlightAware ADS-B
Mon 06:19:37 PM -27.4700 153.4120 245° Southwest 276 318 7,000 -750 Descending FlightAware ADS-B
Mon 06:19:52 PM -27.4800 153.3910 242° Southwest 275 316 6,800 -800 Descending FlightAware ADS-B
Mon 06:20:22 PM -27.4960 153.3530 245° Southwest 272 313 6,400 -800 Descending FlightAware ADS-B
Mon 06:20:52 PM -27.5130 153.3150 243° Southwest 268 308 6,000 -764 Descending FlightAware ADS-B
Mon 06:21:17 PM -27.5260 153.2850 244° Southwest 268 308 5,700 -764 Descending FlightAware ADS-B
Mon 06:21:47 PM -27.5430 153.2480 243° Southwest 262 302 5,300 -764 Descending FlightAware ADS-B
Mon 06:22:12 PM -27.5560 153.2170 245° Southwest 254 292 5,000 -764 Descending FlightAware ADS-B
Mon 06:22:42 PM -27.5720 153.1810 243° Southwest 248 285 4,600 -720 Descending FlightAware ADS-B
Mon 06:23:02 PM -27.5820 153.1580 244° Southwest 245 282 4,400 -667 Descending FlightAware ADS-B
Mon 06:23:27 PM -27.5947 153.1286 244° Southwest 240 276 4,100 -686 Descending Aus ATC (RADAR)
Mon 06:23:37 PM -27.5960 153.1240 244° Southwest 234 269 4,000 -600 Descending FlightAware ADS-B
Mon 06:24:07 PM -27.5920 153.0860 277° West 210 242 3,700 -545 Descending FlightAware ADS-B
Mon 06:24:32 PM -27.5860 153.0630 286° West 198 228 3,500 -545 Descending FlightAware ADS-B
Mon 06:25:02 PM -27.5740 153.0360 297° West 179 206 3,200 -533 Descending FlightAware ADS-B
Mon 06:25:17 PM -27.5660 153.0310 331° Northwest 178 205 3,100 -600 Descending FlightAware ADS-B
Mon 06:25:42 PM -27.5440 153.0370 14° North 182 209 2,800 -655 Descending FlightAware ADS-B
Mon 06:26:12 PM -27.5200 153.0510 27° Northeast 186 214 2,500 -764 Descending FlightAware ADS-B
Mon 06:26:37 PM -27.5010 153.0620 27° Northeast 187 215 2,100 -933 Descending FlightAware ADS-B
Mon 06:26:57 PM -27.4842 153.0716 27° Northeast 185 213 1,800 -1,000 Descending Aus ATC (RADAR)
Mon 06:27:07 PM -27.4780 153.0750 27° Northeast 175 201 1,600 -900 Descending FlightAware ADS-B
Mon 06:27:37 PM -27.4580 153.0870 28° Northeast 155 178 1,200 -764 Descending FlightAware ADS-B
Mon 06:28:02 PM -27.4420 153.0960 27° Northeast 152 175 900 -750 Descending FlightAware ADS-B
Mon 06:28:17 PM -27.4317 153.1018 27° Northeast 153 176 700 -800 Descending Aus ATC (RADAR)
Mon 06:28:32 PM -27.4250 153.1060 27° Northeast 148 170 500 -750 Descending FlightAware ADS-B
Mon 06:28:57 PM -27.4090 153.1150 27° Northeast 151 174 200 -720 Descending FlightAware ADS-B
Mon 06:29:27 PM -27.3910 153.1250 26° Northeast 110 127 -400 Descending FlightAware ADS-B
Mon 06:29:42 PM -27.3870 153.1270 24° Northeast 42 48  Level FlightAware ADS-B
Mon 06:30:12 PM -27.3830 153.1270 360° North 33 38  Level FlightAware ADS-B
Mon 06:30:22 PM -27.3850 153.1270 180° South 8 9  Level FlightAware ADS-B

Login

Don't have an account? Register now (free) for customized features, flight alerts, and more!